createdAt,value
2018-10-07T00:01:59.224Z,21.47
2018-10-07T00:04:26.935Z,20.20
2018-10-07T00:06:54.075Z,19.77
2018-10-07T00:09:21.153Z,25.30
2018-10-07T00:11:48.275Z,21.67
2018-10-07T00:14:15.312Z,21.97
2018-10-07T00:16:42.405Z,21.50
2018-10-07T00:19:09.817Z,25.00
2018-10-07T00:21:36.870Z,28.30
2018-10-07T00:24:03.924Z,26.07
2018-10-07T00:26:31.045Z,24.80
2018-10-07T00:28:58.096Z,23.67
2018-10-07T00:31:25.205Z,23.17
2018-10-07T00:33:52.342Z,19.50
2018-10-07T00:36:19.405Z,29.30
2018-10-07T00:38:46.463Z,20.90
2018-10-07T00:41:13.840Z,18.33
2018-10-07T00:43:40.948Z,20.47
2018-10-07T00:46:08.513Z,22.30
2018-10-07T00:48:35.601Z,20.60
2018-10-07T00:51:02.688Z,24.10
2018-10-07T00:53:29.781Z,31.60
2018-10-07T00:55:56.852Z,21.90
2018-10-07T00:58:23.895Z,19.97
2018-10-07T01:00:50.978Z,19.80
2018-10-07T01:03:18.296Z,22.00
2018-10-07T01:05:45.420Z,22.30
2018-10-07T01:08:12.601Z,22.80
2018-10-07T01:10:40.256Z,23.60
2018-10-07T01:13:07.308Z,24.73
2018-10-07T01:15:34.562Z,21.87
2018-10-07T01:18:01.916Z,29.90
2018-10-07T01:20:28.983Z,22.43
2018-10-07T01:22:56.077Z,25.43
2018-10-07T01:25:23.148Z,20.90
2018-10-07T01:27:50.168Z,21.77
2018-10-07T01:30:21.080Z,20.43
2018-10-07T01:32:48.800Z,21.70
2018-10-07T01:35:15.836Z,21.83
2018-10-07T01:37:42.847Z,21.23
2018-10-07T01:40:10.147Z,19.30
2018-10-07T01:42:37.226Z,30.20
2018-10-07T01:45:04.184Z,27.50
2018-10-07T01:47:31.214Z,23.00
2018-10-07T01:49:58.200Z,21.83
2018-10-07T01:52:25.166Z,31.17
2018-10-07T01:54:52.244Z,24.20
2018-10-07T01:57:19.401Z,22.63
2018-10-07T01:59:46.621Z,29.73
2018-10-07T02:02:13.988Z,19.07
2018-10-07T02:04:41.012Z,23.40
2018-10-07T02:07:08.035Z,24.27
2018-10-07T02:09:35.564Z,25.30
2018-10-07T02:12:02.617Z,21.67
2018-10-07T02:14:29.733Z,24.83
2018-10-07T02:16:56.937Z,21.80
2018-10-07T02:19:23.972Z,18.57
2018-10-07T02:21:51.030Z,21.30
2018-10-07T02:24:18.465Z,19.13
2018-10-07T02:26:45.445Z,23.70
2018-10-07T02:29:13.187Z,20.63
2018-10-07T02:31:40.721Z,21.03
2018-10-07T02:34:08.141Z,23.30
2018-10-07T02:36:35.105Z,18.97
2018-10-07T02:39:02.782Z,21.40
2018-10-07T02:41:29.729Z,23.87
2018-10-07T02:43:56.892Z,22.90
2018-10-07T02:46:23.954Z,22.73
2018-10-07T02:48:51.017Z,21.37
2018-10-07T02:51:18.052Z,23.83
2018-10-07T02:53:45.396Z,24.10
2018-10-07T02:56:12.533Z,21.57
2018-10-07T02:58:39.601Z,25.53
2018-10-07T03:01:07.064Z,21.70
2018-10-07T03:03:34.121Z,21.30
2018-10-07T03:06:01.181Z,24.87
2018-10-07T03:08:28.582Z,21.83
2018-10-07T03:10:55.603Z,22.80
2018-10-07T03:13:22.744Z,23.70
2018-10-07T03:15:49.829Z,24.07
2018-10-07T03:18:16.881Z,23.20
2018-10-07T03:20:43.947Z,25.00
2018-10-07T03:23:12.436Z,22.60
2018-10-07T03:25:39.499Z,24.13
2018-10-07T03:28:06.566Z,22.37
2018-10-07T03:30:33.876Z,21.43
2018-10-07T03:33:00.989Z,25.13
2018-10-07T03:35:27.933Z,31.53
2018-10-07T03:37:54.987Z,28.17
2018-10-07T03:40:22.041Z,33.20
2018-10-07T03:42:49.094Z,24.47
2018-10-07T03:45:16.132Z,26.07
2018-10-07T03:47:43.306Z,25.87
2018-10-07T03:50:10.344Z,23.70
2018-10-07T03:52:37.413Z,23.47
2018-10-07T03:55:04.477Z,25.83
2018-10-07T03:57:31.500Z,25.33
2018-10-07T03:59:59.277Z,24.20
2018-10-07T04:02:26.355Z,19.20
2018-10-07T04:04:53.524Z,27.53
2018-10-07T04:07:20.823Z,25.10
2018-10-07T04:09:47.849Z,21.73
2018-10-07T04:12:14.906Z,23.47
2018-10-07T04:14:42.001Z,25.33
2018-10-07T04:17:09.240Z,25.60
2018-10-07T04:19:36.308Z,23.83
2018-10-07T04:22:03.600Z,25.30
2018-10-07T04:24:32.013Z,20.60
2018-10-07T04:26:59.182Z,23.37
2018-10-07T04:29:26.822Z,23.77
2018-10-07T04:31:53.943Z,20.73
2018-10-07T04:34:21.013Z,25.90
2018-10-07T04:36:48.055Z,24.00
2018-10-07T04:39:15.089Z,27.93
2018-10-07T04:41:42.897Z,30.03
2018-10-07T04:44:10.340Z,24.27
2018-10-07T04:46:37.925Z,27.10
2018-10-07T04:49:04.968Z,26.13
2018-10-07T04:51:32.609Z,29.60
2018-10-07T04:53:59.692Z,30.40
2018-10-07T04:56:26.741Z,25.60
2018-10-07T04:58:53.987Z,28.83
2018-10-07T05:01:21.212Z,26.70
2018-10-07T05:03:48.555Z,29.37
2018-10-07T05:06:15.996Z,30.53
2018-10-07T05:08:43.146Z,57.43
2018-10-07T05:11:10.293Z,53.60
2018-10-07T05:13:42.324Z,44.10
2018-10-07T05:16:09.398Z,49.63
2018-10-07T05:18:36.562Z,50.07
2018-10-07T05:21:03.760Z,48.90
2018-10-07T05:23:30.812Z,63.57
2018-10-07T05:25:57.853Z,34.67
2018-10-07T05:28:25.329Z,38.63
2018-10-07T05:30:52.393Z,37.10
2018-10-07T05:33:19.548Z,34.83
2018-10-07T05:35:46.625Z,46.40
2018-10-07T05:38:13.667Z,34.77
2018-10-07T05:40:40.717Z,34.10
2018-10-07T05:43:07.821Z,39.30
2018-10-07T05:45:34.885Z,35.93
2018-10-07T05:48:02.024Z,34.90
2018-10-07T05:50:29.138Z,40.57
2018-10-07T05:52:56.171Z,40.87
2018-10-07T05:55:23.466Z,39.67
2018-10-07T05:57:51.601Z,39.80
2018-10-07T06:00:18.648Z,42.73
2018-10-07T06:02:46.815Z,41.07
2018-10-07T06:05:14.117Z,39.97
2018-10-07T06:07:41.349Z,41.00
2018-10-07T06:10:08.418Z,41.20
2018-10-07T06:12:35.494Z,43.67
2018-10-07T06:15:08.517Z,40.23
2018-10-07T06:17:35.548Z,48.53
2018-10-07T06:20:02.619Z,38.77
2018-10-07T06:22:29.653Z,58.30
2018-10-07T06:24:56.986Z,40.93
2018-10-07T06:27:23.949Z,41.53
2018-10-07T06:29:50.943Z,47.70
2018-10-07T06:32:18.158Z,47.63
2018-10-07T06:34:45.117Z,49.70
2018-10-07T06:37:12.098Z,54.50
2018-10-07T06:39:39.157Z,51.03
2018-10-07T06:42:06.159Z,43.00
2018-10-07T06:44:33.144Z,47.90
2018-10-07T06:47:00.257Z,54.97
2018-10-07T06:49:27.189Z,46.03
2018-10-07T06:51:54.120Z,51.83
2018-10-07T06:54:21.398Z,48.17
2018-10-07T06:56:48.882Z,52.73
2018-10-07T06:59:15.849Z,53.10
2018-10-07T07:01:43.114Z,48.13
2018-10-07T07:04:10.085Z,58.20
2018-10-07T07:06:37.091Z,47.40
2018-10-07T07:09:06.481Z,47.53
2018-10-07T07:11:33.754Z,48.60
2018-10-07T07:14:00.761Z,46.13
2018-10-07T07:16:27.728Z,44.40
2018-10-07T07:18:54.665Z,44.27
2018-10-07T07:21:21.753Z,42.53
2018-10-07T07:23:48.718Z,41.33
2018-10-07T07:26:15.677Z,47.00
2018-10-07T07:28:42.654Z,34.60
2018-10-07T07:31:09.987Z,32.93
2018-10-07T07:33:36.981Z,26.57
2018-10-07T07:36:04.002Z,24.50
2018-10-07T07:38:31.295Z,19.33
2018-10-07T07:40:58.281Z,22.87
2018-10-07T07:43:25.270Z,18.23
2018-10-07T07:45:52.645Z,20.70
2018-10-07T07:48:19.621Z,20.83
2018-10-07T07:50:46.566Z,26.33
2018-10-07T07:53:13.663Z,19.07
2018-10-07T07:55:40.742Z,21.57
2018-10-07T07:58:07.800Z,21.77
2018-10-07T08:00:35.236Z,20.83
2018-10-07T08:03:02.284Z,25.40
2018-10-07T08:05:29.581Z,29.03
2018-10-07T08:07:57.016Z,23.00
2018-10-07T08:10:24.081Z,19.10
2018-10-07T08:12:51.186Z,20.53
2018-10-07T08:15:18.287Z,15.53
2018-10-07T08:17:45.440Z,10.80
2018-10-07T08:20:12.485Z,10.07
2018-10-07T08:22:39.609Z,9.83
2018-10-07T08:25:06.661Z,11.77
2018-10-07T08:27:33.766Z,9.23
2018-10-07T08:30:00.873Z,13.20
2018-10-07T08:32:27.953Z,10.90
2018-10-07T08:34:55.030Z,9.30
2018-10-07T08:37:21.973Z,9.73
2018-10-07T08:39:49.030Z,8.53
2018-10-07T08:42:16.083Z,8.97
2018-10-07T08:44:43.426Z,6.07
2018-10-07T08:47:10.517Z,8.63
2018-10-07T08:49:37.590Z,5.93
2018-10-07T08:52:05.019Z,8.13
2018-10-07T08:54:32.071Z,6.47
2018-10-07T08:56:59.161Z,6.00
2018-10-07T08:59:26.265Z,7.27
2018-10-07T09:01:53.414Z,6.03
2018-10-07T09:04:20.466Z,5.33
2018-10-07T09:06:47.821Z,8.90
2018-10-07T09:09:14.898Z,5.27
2018-10-07T09:11:41.939Z,4.90
2018-10-07T09:14:09.442Z,5.97
2018-10-07T09:16:36.560Z,3.57
2018-10-07T09:19:03.753Z,5.40
2018-10-07T09:21:30.948Z,4.73
2018-10-07T09:23:58.032Z,3.63
2018-10-07T09:26:25.165Z,3.90
2018-10-07T09:28:52.535Z,4.60
2018-10-07T09:31:19.716Z,2.83
2018-10-07T09:33:46.798Z,3.50
2018-10-07T09:36:14.126Z,2.17
2018-10-07T09:38:41.259Z,3.20
2018-10-07T09:41:08.339Z,4.63
2018-10-07T09:43:35.433Z,6.30
2018-10-07T09:46:02.500Z,3.50
2018-10-07T09:48:29.609Z,3.40
2018-10-07T09:50:56.890Z,6.43
2018-10-07T09:53:23.925Z,3.10
2018-10-07T09:55:50.991Z,5.33
2018-10-07T09:58:18.342Z,3.10
2018-10-07T10:00:45.532Z,3.00
2018-10-07T10:03:12.632Z,3.20
2018-10-07T10:05:40.058Z,4.97
2018-10-07T10:08:07.729Z,5.10
2018-10-07T10:10:34.810Z,5.07
2018-10-07T10:13:01.930Z,2.00
2018-10-07T10:15:29.006Z,2.77
2018-10-07T10:17:59.297Z,3.17
2018-10-07T10:20:28.652Z,2.77
2018-10-07T10:22:57.908Z,3.50
2018-10-07T10:25:30.757Z,4.73
2018-10-07T10:27:59.687Z,3.63
2018-10-07T10:30:29.447Z,3.80
2018-10-07T10:33:00.905Z,5.07
2018-10-07T10:35:28.768Z,10.50
2018-10-07T10:37:59.353Z,4.07
2018-10-07T10:40:28.321Z,2.03
2018-10-07T10:42:58.833Z,6.10
2018-10-07T10:45:27.203Z,2.50
2018-10-07T10:47:56.233Z,5.97
2018-10-07T10:50:26.828Z,3.83
2018-10-07T10:53:00.089Z,2.63
2018-10-07T10:55:28.644Z,3.43
2018-10-07T10:57:57.413Z,3.30
2018-10-07T11:00:26.106Z,5.97
2018-10-07T11:02:54.853Z,2.07
2018-10-07T11:05:27.760Z,2.87
2018-10-07T11:07:56.819Z,4.20
2018-10-07T11:10:34.653Z,3.37
2018-10-07T11:13:04.878Z,4.67
2018-10-07T11:15:37.865Z,1.60
2018-10-07T11:18:07.485Z,6.07
2018-10-07T11:20:45.978Z,4.03
2018-10-07T11:23:18.849Z,3.17
2018-10-07T11:25:50.528Z,3.70
2018-10-07T11:28:19.912Z,6.57
2018-10-07T11:30:53.292Z,6.33
2018-10-07T11:33:23.871Z,4.40
2018-10-07T11:35:53.948Z,8.50
2018-10-07T11:38:24.391Z,3.90
2018-10-07T11:40:57.849Z,3.40
2018-10-07T11:43:28.934Z,2.70
2018-10-07T11:46:02.252Z,6.30
2018-10-07T11:48:37.157Z,4.37
2018-10-07T11:51:08.755Z,4.43
2018-10-07T11:53:39.644Z,3.13
2018-10-07T11:56:06.696Z,7.60
2018-10-07T11:58:34.061Z,4.17
2018-10-07T12:01:01.133Z,10.03
2018-10-07T12:03:28.271Z,5.27
2018-10-07T12:05:55.668Z,5.67
2018-10-07T12:08:22.842Z,4.10
2018-10-07T12:10:49.903Z,5.83
2018-10-07T12:13:16.980Z,8.97
2018-10-07T12:15:44.090Z,7.67
2018-10-07T12:18:11.380Z,7.60
2018-10-07T12:20:38.510Z,7.70
2018-10-07T12:23:05.601Z,5.47
2018-10-07T12:25:32.913Z,4.77
2018-10-07T12:28:00.273Z,4.43
2018-10-07T12:30:27.353Z,4.17
2018-10-07T12:32:54.437Z,20.50
2018-10-07T12:35:21.934Z,8.50
2018-10-07T12:37:49.051Z,5.80
2018-10-07T12:40:16.104Z,5.93
2018-10-07T12:42:43.335Z,7.97
2018-10-07T12:45:10.294Z,11.03
2018-10-07T12:47:37.413Z,30.63
2018-10-07T12:50:04.876Z,19.10
2018-10-07T12:52:31.985Z,25.03
2018-10-07T12:54:59.015Z,19.00
2018-10-07T12:57:26.463Z,6.80
2018-10-07T12:59:53.594Z,5.20
2018-10-07T13:02:20.656Z,7.00
2018-10-07T13:04:48.037Z,6.43
2018-10-07T13:07:15.138Z,2.93
2018-10-07T13:09:42.380Z,6.63
2018-10-07T13:12:09.416Z,6.70
2018-10-07T13:14:43.312Z,3.70
2018-10-07T13:17:10.740Z,2.90
2018-10-07T13:19:37.891Z,6.93
2018-10-07T13:22:06.656Z,5.50
2018-10-07T13:24:35.295Z,7.80
2018-10-07T13:27:02.427Z,5.80
2018-10-07T13:29:31.155Z,2.80
2018-10-07T13:32:00.363Z,4.43
2018-10-07T13:34:28.726Z,3.60
2018-10-07T13:36:55.910Z,4.07
2018-10-07T13:39:23.345Z,4.60
2018-10-07T13:41:50.482Z,7.00
2018-10-07T13:44:17.599Z,4.70
2018-10-07T13:46:44.738Z,3.10
2018-10-07T13:49:11.834Z,5.87
2018-10-07T13:51:38.994Z,4.60
2018-10-07T13:54:06.422Z,4.37
2018-10-07T13:56:33.513Z,4.40
2018-10-07T13:59:00.605Z,4.43
2018-10-07T14:01:27.953Z,3.70
2018-10-07T14:03:55.052Z,4.80
2018-10-07T14:06:22.222Z,3.37
2018-10-07T14:08:49.610Z,2.47
2018-10-07T14:11:16.695Z,3.77
2018-10-07T14:13:43.797Z,3.17
2018-10-07T14:16:10.953Z,3.20
2018-10-07T14:18:38.085Z,3.70
2018-10-07T14:21:05.140Z,5.50
2018-10-07T14:23:32.270Z,4.30
2018-10-07T14:25:59.358Z,5.30
2018-10-07T14:28:26.417Z,7.10
2018-10-07T14:30:53.861Z,11.33
2018-10-07T14:33:20.921Z,6.37
2018-10-07T14:35:47.992Z,5.90
2018-10-07T14:38:15.361Z,6.90
2018-10-07T14:40:42.539Z,5.07
2018-10-07T14:43:09.587Z,4.90
2018-10-07T14:45:36.661Z,4.83
2018-10-07T14:48:03.778Z,4.57
2018-10-07T14:50:30.829Z,6.33
2018-10-07T14:52:58.291Z,7.60
2018-10-07T14:55:25.449Z,8.67
2018-10-07T14:57:52.521Z,10.37
2018-10-07T15:00:19.618Z,4.77
2018-10-07T15:02:46.697Z,4.40
2018-10-07T15:05:13.745Z,24.43
2018-10-07T15:07:40.824Z,7.20
2018-10-07T15:10:07.910Z,6.70
2018-10-07T15:12:35.064Z,12.73
2018-10-07T15:15:02.262Z,6.50
2018-10-07T15:17:29.315Z,11.07
2018-10-07T15:19:56.381Z,7.77
2018-10-07T15:22:23.818Z,6.40
2018-10-07T15:24:50.920Z,6.93
2018-10-07T15:27:17.988Z,5.73
2018-10-07T15:29:45.448Z,3.77
2018-10-07T15:32:12.590Z,5.40
2018-10-07T15:34:39.742Z,8.00
2018-10-07T15:37:06.833Z,5.20
2018-10-07T15:39:33.912Z,8.90
2018-10-07T15:42:01.009Z,9.50
2018-10-07T15:44:28.469Z,6.50
2018-10-07T15:46:55.554Z,5.30
2018-10-07T15:49:22.636Z,17.53
2018-10-07T15:51:49.712Z,9.60
2018-10-07T15:54:16.835Z,7.27
2018-10-07T15:56:43.950Z,6.17
2018-10-07T15:59:11.293Z,7.57
2018-10-07T16:01:38.354Z,4.97
2018-10-07T16:04:05.481Z,4.90
2018-10-07T16:06:32.902Z,5.43
2018-10-07T16:09:00.084Z,5.70
2018-10-07T16:11:27.073Z,5.57
2018-10-07T16:13:54.178Z,3.97
2018-10-07T16:16:21.656Z,6.03
2018-10-07T16:18:48.862Z,6.17
2018-10-07T16:21:16.281Z,7.70
2018-10-07T16:23:43.493Z,12.33
2018-10-07T16:26:10.610Z,14.40
2018-10-07T16:28:38.164Z,14.90
2018-10-07T16:31:05.359Z,16.63
2018-10-07T16:33:32.443Z,7.57
2018-10-07T16:35:59.557Z,7.67
2018-10-07T16:38:26.878Z,5.10
2018-10-07T16:40:54.264Z,6.73
2018-10-07T16:43:21.928Z,13.70
2018-10-07T16:45:49.447Z,11.00
2018-10-07T16:48:16.720Z,10.07
2018-10-07T16:50:44.344Z,11.13
2018-10-07T16:53:11.456Z,16.30
2018-10-07T16:55:38.854Z,8.07
2018-10-07T16:58:06.707Z,12.70
2018-10-07T17:00:33.890Z,9.47
2018-10-07T17:03:01.070Z,9.57
2018-10-07T17:05:28.400Z,9.50
2018-10-07T17:07:55.818Z,7.37
2018-10-07T17:10:23.499Z,12.17
2018-10-07T17:12:51.084Z,22.00
2018-10-07T17:15:18.596Z,52.87
2018-10-07T17:17:46.941Z,11.40
2018-10-07T17:20:14.493Z,15.33
2018-10-07T17:22:42.364Z,14.73
2018-10-07T17:25:10.228Z,14.53
2018-10-07T17:27:37.925Z,10.20
2018-10-07T17:30:06.281Z,11.50
2018-10-07T17:32:34.024Z,13.07
2018-10-07T17:35:02.902Z,14.83
2018-10-07T17:37:31.030Z,18.57
2018-10-07T17:39:59.203Z,11.37
2018-10-07T17:42:27.121Z,10.67
2018-10-07T17:44:55.099Z,10.33
2018-10-07T17:47:23.422Z,13.53
2018-10-07T17:49:51.413Z,13.37
2018-10-07T17:52:19.086Z,12.80
2018-10-07T17:54:47.023Z,15.73
2018-10-07T17:57:14.806Z,15.90
2018-10-07T17:59:42.661Z,17.40
2018-10-07T18:02:10.906Z,13.00
2018-10-07T18:04:38.173Z,10.37
2018-10-07T18:07:05.207Z,10.00
2018-10-07T18:09:32.316Z,11.27
2018-10-07T18:12:00.005Z,10.63
2018-10-07T18:14:27.198Z,12.20
2018-10-07T18:16:54.308Z,12.37
2018-10-07T18:19:21.464Z,7.63
2018-10-07T18:21:48.756Z,8.73
2018-10-07T18:24:15.806Z,11.23
2018-10-07T18:26:43.128Z,12.20
2018-10-07T18:29:10.202Z,12.73
2018-10-07T18:31:37.462Z,7.80
2018-10-07T18:34:04.985Z,14.17
2018-10-07T18:36:32.444Z,11.23
2018-10-07T18:39:00.489Z,10.90
2018-10-07T18:41:28.012Z,11.33
2018-10-07T18:43:55.132Z,14.23
2018-10-07T18:46:22.425Z,10.27
2018-10-07T18:48:49.691Z,14.17
2018-10-07T18:51:16.987Z,14.20
2018-10-07T18:53:44.302Z,11.80
2018-10-07T18:56:11.823Z,11.23
2018-10-07T18:58:39.281Z,11.87
2018-10-07T19:01:06.420Z,17.43
2018-10-07T19:03:33.528Z,9.83
2018-10-07T19:06:00.638Z,10.00
2018-10-07T19:08:27.707Z,9.60
2018-10-07T19:10:54.776Z,9.20
2018-10-07T19:13:21.848Z,11.83
2018-10-07T19:15:48.907Z,7.90
2018-10-07T19:18:16.006Z,14.53
2018-10-07T19:20:43.165Z,9.90
2018-10-07T19:23:10.566Z,12.73
2018-10-07T19:25:37.732Z,12.60
2018-10-07T19:28:05.029Z,9.87
2018-10-07T19:30:33.520Z,52.17
2018-10-07T19:33:02.058Z,9.27
2018-10-07T19:35:29.396Z,11.20
2018-10-07T19:37:56.473Z,8.83
2018-10-07T19:40:23.637Z,9.80
2018-10-07T19:42:50.786Z,11.67
2018-10-07T19:45:17.913Z,8.30
2018-10-07T19:47:45.323Z,8.67
2018-10-07T19:50:12.446Z,8.90
2018-10-07T19:52:39.589Z,10.93
2018-10-07T19:55:07.069Z,9.00
2018-10-07T19:57:34.559Z,10.13
2018-10-07T20:00:01.636Z,15.30
2018-10-07T20:02:28.783Z,9.37
2018-10-07T20:04:55.953Z,14.97
2018-10-07T20:07:23.084Z,14.37
2018-10-07T20:09:50.351Z,21.93
2018-10-07T20:12:17.493Z,20.67
2018-10-07T20:14:44.613Z,12.50
2018-10-07T20:17:12.063Z,9.90
2018-10-07T20:19:39.260Z,10.97
2018-10-07T20:22:10.443Z,8.23
2018-10-07T20:24:37.793Z,6.43
2018-10-07T20:27:04.969Z,10.33
2018-10-07T20:29:32.194Z,9.33
2018-10-07T20:31:59.268Z,10.10
2018-10-07T20:34:26.349Z,19.37
2018-10-07T20:36:53.517Z,23.00
2018-10-07T20:39:21.017Z,13.60
2018-10-07T20:41:48.125Z,7.57
2018-10-07T20:44:15.171Z,8.23
2018-10-07T20:46:42.527Z,12.90
2018-10-07T20:49:10.084Z,9.13
2018-10-07T20:51:37.214Z,11.40
2018-10-07T20:54:04.833Z,9.23
2018-10-07T20:56:31.922Z,10.97
2018-10-07T20:58:59.011Z,7.83
2018-10-07T21:01:26.205Z,6.57
2018-10-07T21:03:53.287Z,7.37
2018-10-07T21:06:20.452Z,7.57
2018-10-07T21:08:47.585Z,7.53
2018-10-07T21:11:14.637Z,8.90
2018-10-07T21:13:41.697Z,10.83
2018-10-07T21:16:08.776Z,7.37
2018-10-07T21:18:35.869Z,16.70
2018-10-07T21:21:03.041Z,13.70
2018-10-07T21:23:30.169Z,11.37
2018-10-07T21:25:57.288Z,12.90
2018-10-07T21:28:24.425Z,12.73
2018-10-07T21:30:51.619Z,10.23
2018-10-07T21:33:18.769Z,12.67
2018-10-07T21:35:46.292Z,13.37
2018-10-07T21:38:14.145Z,8.67
2018-10-07T21:40:41.800Z,11.10
2018-10-07T21:43:09.159Z,11.37
2018-10-07T21:45:36.225Z,8.20
2018-10-07T21:48:03.281Z,8.47
2018-10-07T21:50:30.597Z,8.63
2018-10-07T21:52:57.797Z,8.03
2018-10-07T21:55:24.834Z,9.47
2018-10-07T21:57:51.944Z,8.93
2018-10-07T22:00:19.093Z,14.30
2018-10-07T22:02:46.473Z,11.00
2018-10-07T22:05:13.614Z,7.10
2018-10-07T22:07:41.537Z,7.53
2018-10-07T22:10:08.580Z,6.80
2018-10-07T22:12:35.868Z,6.63
2018-10-07T22:15:03.311Z,6.37
2018-10-07T22:17:30.525Z,11.93
2018-10-07T22:19:57.477Z,12.00
2018-10-07T22:22:24.499Z,6.80
2018-10-07T22:24:51.472Z,7.70
2018-10-07T22:27:18.512Z,6.83
2018-10-07T22:29:46.170Z,7.07
2018-10-07T22:32:13.510Z,6.60
2018-10-07T22:34:40.482Z,6.70
2018-10-07T22:37:07.813Z,9.30
2018-10-07T22:39:34.795Z,4.90
2018-10-07T22:42:01.829Z,4.57
2018-10-07T22:44:29.092Z,9.20
2018-10-07T22:46:56.565Z,10.03
2018-10-07T22:49:23.996Z,8.07
2018-10-07T22:51:51.701Z,10.30
2018-10-07T22:54:18.912Z,7.50
2018-10-07T22:56:46.563Z,9.63
2018-10-07T22:59:14.470Z,6.10
2018-10-07T23:01:42.381Z,9.53
2018-10-07T23:04:10.419Z,8.07
2018-10-07T23:06:38.477Z,7.50
2018-10-07T23:09:08.763Z,7.40
2018-10-07T23:11:37.496Z,7.60
2018-10-07T23:14:06.294Z,7.60
2018-10-07T23:16:34.575Z,8.83
2018-10-07T23:19:02.110Z,6.90
2018-10-07T23:21:29.834Z,10.37
2018-10-07T23:23:57.546Z,10.47
2018-10-07T23:26:25.241Z,7.90
2018-10-07T23:28:54.330Z,9.87
2018-10-07T23:31:24.698Z,10.30
2018-10-07T23:33:53.010Z,9.00
2018-10-07T23:36:20.890Z,9.57
2018-10-07T23:38:48.749Z,10.47
2018-10-07T23:41:16.200Z,9.80
2018-10-07T23:43:44.437Z,14.70
2018-10-07T23:46:11.984Z,13.10
2018-10-07T23:48:39.308Z,11.93
2018-10-07T23:51:06.975Z,11.60
2018-10-07T23:53:35.562Z,9.80
2018-10-07T23:56:02.824Z,9.57
2018-10-07T23:58:30.480Z,13.77
